sensor_id;sensor_type;location;lat;lon;timestamp;pressure;altitude;pressure_sealevel;temperature;humidity
14242;BME280;7205;50.864;12.766;2024-01-07T00:02:06;97352.38;;;1.52;100.00
14242;BME280;7205;50.864;12.766;2024-01-07T00:04:33;97343.78;;;1.41;100.00
14242;BME280;7205;50.864;12.766;2024-01-07T00:07:00;97353.81;;;1.45;100.00
14242;BME280;7205;50.864;12.766;2024-01-07T00:09:27;97346.03;;;1.34;100.00
14242;BME280;7205;50.864;12.766;2024-01-07T00:11:54;97347.72;;;1.35;100.00
14242;BME280;7205;50.864;12.766;2024-01-07T00:14:21;97339.28;;;1.22;100.00
14242;BME280;7205;50.864;12.766;2024-01-07T00:16:49;97365.16;;;1.23;100.00
14242;BME280;7205;50.864;12.766;2024-01-07T00:19:16;97358.06;;;1.25;100.00
14242;BME280;7205;50.864;12.766;2024-01-07T00:21:43;97368.06;;;1.30;100.00
14242;BME280;7205;50.864;12.766;2024-01-07T00:24:09;97364.19;;;1.24;100.00
14242;BME280;7205;50.864;12.766;2024-01-07T00:26:36;97360.41;;;1.28;100.00
14242;BME280;7205;50.864;12.766;2024-01-07T00:29:03;97369.97;;;1.28;100.00
14242;BME280;7205;50.864;12.766;2024-01-07T00:31:30;97360.19;;;1.20;100.00
14242;BME280;7205;50.864;12.766;2024-01-07T00:33:58;97365.50;;;1.19;100.00
14242;BME280;7205;50.864;12.766;2024-01-07T00:36:25;97371.19;;;1.13;100.00
14242;BME280;7205;50.864;12.766;2024-01-07T00:38:52;97375.69;;;1.11;100.00
14242;BME280;7205;50.864;12.766;2024-01-07T00:41:18;97382.69;;;1.10;100.00
14242;BME280;7205;50.864;12.766;2024-01-07T00:43:45;97379.63;;;1.05;100.00
14242;BME280;7205;50.864;12.766;2024-01-07T00:46:12;97379.50;;;1.07;100.00
14242;BME280;7205;50.864;12.766;2024-01-07T00:48:39;97375.25;;;1.06;100.00
14242;BME280;7205;50.864;12.766;2024-01-07T00:51:07;97367.19;;;1.09;100.00
14242;BME280;7205;50.864;12.766;2024-01-07T00:53:34;97381.34;;;1.16;100.00
14242;BME280;7205;50.864;12.766;2024-01-07T00:56:01;97388.22;;;1.17;100.00
14242;BME280;7205;50.864;12.766;2024-01-07T00:58:28;97376.41;;;1.13;100.00
14242;BME280;7205;50.864;12.766;2024-01-07T01:00:55;97376.16;;;1.16;100.00
14242;BME280;7205;50.864;12.766;2024-01-07T01:03:21;97373.28;;;1.19;100.00
14242;BME280;7205;50.864;12.766;2024-01-07T01:05:49;97380.63;;;1.25;100.00
14242;BME280;7205;50.864;12.766;2024-01-07T01:08:17;97384.84;;;1.26;100.00
14242;BME280;7205;50.864;12.766;2024-01-07T01:10:44;97374.97;;;1.20;100.00
14242;BME280;7205;50.864;12.766;2024-01-07T01:13:11;97380.16;;;1.20;100.00
14242;BME280;7205;50.864;12.766;2024-01-07T01:15:37;97401.03;;;1.29;100.00
14242;BME280;7205;50.864;12.766;2024-01-07T01:18:05;97394.44;;;1.25;100.00
14242;BME280;7205;50.864;12.766;2024-01-07T01:20:31;97402.47;;;1.22;100.00
14242;BME280;7205;50.864;12.766;2024-01-07T01:22:58;97405.31;;;1.19;100.00
14242;BME280;7205;50.864;12.766;2024-01-07T01:25:26;97403.94;;;1.15;100.00
14242;BME280;7205;50.864;12.766;2024-01-07T01:27:55;97403.22;;;1.13;100.00
14242;BME280;7205;50.864;12.766;2024-01-07T01:30:22;97406.69;;;1.03;100.00
14242;BME280;7205;50.864;12.766;2024-01-07T01:32:49;97397.97;;;0.93;100.00
14242;BME280;7205;50.864;12.766;2024-01-07T01:35:16;97399.72;;;0.92;100.00
14242;BME280;7205;50.864;12.766;2024-01-07T01:37:42;97413.69;;;0.91;100.00
14242;BME280;7205;50.864;12.766;2024-01-07T01:40:10;97405.28;;;0.88;100.00
14242;BME280;7205;50.864;12.766;2024-01-07T01:42:42;97415.56;;;0.89;100.00
14242;BME280;7205;50.864;12.766;2024-01-07T01:45:09;97404.97;;;0.81;100.00
14242;BME280;7205;50.864;12.766;2024-01-07T01:47:36;97417.44;;;0.87;100.00
14242;BME280;7205;50.864;12.766;2024-01-07T01:50:04;97422.31;;;0.92;100.00
14242;BME280;7205;50.864;12.766;2024-01-07T01:52:31;97411.47;;;0.87;100.00
14242;BME280;7205;50.864;12.766;2024-01-07T01:54:58;97412.72;;;0.92;100.00
14242;BME280;7205;50.864;12.766;2024-01-07T01:57:33;97415.69;;;0.88;100.00
14242;BME280;7205;50.864;12.766;2024-01-07T02:00:02;97418.28;;;0.88;100.00
14242;BME280;7205;50.864;12.766;2024-01-07T02:02:30;97413.81;;;0.90;100.00
14242;BME280;7205;50.864;12.766;2024-01-07T02:04:59;97419.59;;;0.93;100.00
14242;BME280;7205;50.864;12.766;2024-01-07T02:07:27;97421.34;;;0.93;100.00
14242;BME280;7205;50.864;12.766;2024-01-07T02:09:54;97423.94;;;0.93;100.00
14242;BME280;7205;50.864;12.766;2024-01-07T02:12:21;97427.97;;;0.97;100.00
14242;BME280;7205;50.864;12.766;2024-01-07T02:14:48;97436.81;;;0.94;100.00
14242;BME280;7205;50.864;12.766;2024-01-07T02:17:17;97425.25;;;0.87;100.00
14242;BME280;7205;50.864;12.766;2024-01-07T02:19:44;97437.91;;;0.92;100.00
14242;BME280;7205;50.864;12.766;2024-01-07T02:22:11;97432.59;;;0.93;100.00
14242;BME280;7205;50.864;12.766;2024-01-07T02:24:40;97436.34;;;0.89;100.00
14242;BME280;7205;50.864;12.766;2024-01-07T02:27:07;97434.38;;;0.82;100.00
14242;BME280;7205;50.864;12.766;2024-01-07T02:29:34;97446.28;;;0.84;100.00
14242;BME280;7205;50.864;12.766;2024-01-07T02:32:01;97435.78;;;0.75;100.00
14242;BME280;7205;50.864;12.766;2024-01-07T02:34:27;97438.50;;;0.73;100.00
14242;BME280;7205;50.864;12.766;2024-01-07T02:36:54;97447.22;;;0.72;100.00
14242;BME280;7205;50.864;12.766;2024-01-07T02:39:21;97459.88;;;0.77;100.00
14242;BME280;7205;50.864;12.766;2024-01-07T02:41:50;97461.41;;;0.79;100.00
14242;BME280;7205;50.864;12.766;2024-01-07T02:44:17;97455.63;;;0.76;100.00
14242;BME280;7205;50.864;12.766;2024-01-07T02:46:44;97452.69;;;0.80;100.00
14242;BME280;7205;50.864;12.766;2024-01-07T02:49:11;97454.69;;;0.77;100.00
14242;BME280;7205;50.864;12.766;2024-01-07T02:51:38;97461.53;;;0.78;100.00
14242;BME280;7205;50.864;12.766;2024-01-07T02:54:05;97461.53;;;0.67;100.00
14242;BME280;7205;50.864;12.766;2024-01-07T02:56:32;97469.94;;;0.70;100.00
14242;BME280;7205;50.864;12.766;2024-01-07T02:59:00;97461.44;;;0.68;100.00
14242;BME280;7205;50.864;12.766;2024-01-07T03:01:27;97472.41;;;0.72;100.00
14242;BME280;7205;50.864;12.766;2024-01-07T03:03:54;97462.34;;;0.67;100.00
14242;BME280;7205;50.864;12.766;2024-01-07T03:06:21;97468.97;;;0.71;100.00
14242;BME280;7205;50.864;12.766;2024-01-07T03:08:48;97467.34;;;0.70;100.00
14242;BME280;7205;50.864;12.766;2024-01-07T03:11:15;97465.56;;;0.60;100.00
14242;BME280;7205;50.864;12.766;2024-01-07T03:13:42;97466.97;;;0.53;100.00
14242;BME280;7205;50.864;12.766;2024-01-07T03:16:19;97459.53;;;0.48;100.00
14242;BME280;7205;50.864;12.766;2024-01-07T03:18:45;97472.28;;;0.51;100.00
14242;BME280;7205;50.864;12.766;2024-01-07T03:21:17;97468.97;;;0.49;100.00
14242;BME280;7205;50.864;12.766;2024-01-07T03:23:44;97473.81;;;0.54;100.00
14242;BME280;7205;50.864;12.766;2024-01-07T03:26:11;97466.63;;;0.46;100.00
14242;BME280;7205;50.864;12.766;2024-01-07T03:28:37;97484.31;;;0.52;100.00
14242;BME280;7205;50.864;12.766;2024-01-07T03:31:05;97477.72;;;0.48;100.00
14242;BME280;7205;50.864;12.766;2024-01-07T03:33:33;97472.66;;;0.47;100.00
14242;BME280;7205;50.864;12.766;2024-01-07T03:36:00;97485.16;;;0.53;100.00
14242;BME280;7205;50.864;12.766;2024-01-07T03:38:27;97484.09;;;0.55;100.00
14242;BME280;7205;50.864;12.766;2024-01-07T03:40:54;97475.94;;;0.49;100.00
14242;BME280;7205;50.864;12.766;2024-01-07T03:43:20;97474.53;;;0.45;100.00
14242;BME280;7205;50.864;12.766;2024-01-07T03:45:47;97489.88;;;0.48;100.00
14242;BME280;7205;50.864;12.766;2024-01-07T03:48:15;97494.56;;;0.43;100.00
14242;BME280;7205;50.864;12.766;2024-01-07T03:50:43;97496.34;;;0.42;100.00
14242;BME280;7205;50.864;12.766;2024-01-07T03:53:37;97489.50;;;0.41;100.00
14242;BME280;7205;50.864;12.766;2024-01-07T03:56:05;97483.84;;;0.36;100.00
14242;BME280;7205;50.864;12.766;2024-01-07T03:58:32;97480.41;;;0.36;100.00
14242;BME280;7205;50.864;12.766;2024-01-07T04:01:00;97491.50;;;0.38;100.00
14242;BME280;7205;50.864;12.766;2024-01-07T04:03:27;97491.03;;;0.33;100.00
14242;BME280;7205;50.864;12.766;2024-01-07T04:05:56;97476.41;;;0.32;100.00
14242;BME280;7205;50.864;12.766;2024-01-07T04:08:23;97484.31;;;0.30;100.00
14242;BME280;7205;50.864;12.766;2024-01-07T04:10:51;97492.91;;;0.31;100.00
14242;BME280;7205;50.864;12.766;2024-01-07T04:13:18;97505.75;;;0.32;100.00
14242;BME280;7205;50.864;12.766;2024-01-07T04:15:46;97507.75;;;0.29;100.00
14242;BME280;7205;50.864;12.766;2024-01-07T04:18:13;97507.28;;;0.24;100.00
14242;BME280;7205;50.864;12.766;2024-01-07T04:20:40;97508.47;;;0.20;100.00
14242;BME280;7205;50.864;12.766;2024-01-07T04:23:09;97492.53;;;0.13;100.00
14242;BME280;7205;50.864;12.766;2024-01-07T04:25:36;97505.16;;;0.18;100.00
14242;BME280;7205;50.864;12.766;2024-01-07T04:28:03;97513.78;;;0.18;100.00
14242;BME280;7205;50.864;12.766;2024-01-07T04:30:31;97523.69;;;0.13;100.00
14242;BME280;7205;50.864;12.766;2024-01-07T04:32:57;97511.75;;;0.11;100.00
14242;BME280;7205;50.864;12.766;2024-01-07T04:35:24;97524.72;;;0.11;100.00
14242;BME280;7205;50.864;12.766;2024-01-07T04:37:52;97520.84;;;0.05;100.00
14242;BME280;7205;50.864;12.766;2024-01-07T04:40:21;97536.16;;;0.08;100.00
14242;BME280;7205;50.864;12.766;2024-01-07T04:42:48;97530.72;;;0.00;100.00
14242;BME280;7205;50.864;12.766;2024-01-07T04:45:17;97528.56;;;-0.06;100.00
14242;BME280;7205;50.864;12.766;2024-01-07T04:47:44;97538.09;;;-0.07;100.00
14242;BME280;7205;50.864;12.766;2024-01-07T04:50:13;97543.28;;;-0.07;100.00
14242;BME280;7205;50.864;12.766;2024-01-07T04:52:40;97553.91;;;-0.10;100.00
14242;BME280;7205;50.864;12.766;2024-01-07T04:55:07;97537.34;;;-0.20;100.00
14242;BME280;7205;50.864;12.766;2024-01-07T04:57:36;97550.47;;;-0.10;100.00
14242;BME280;7205;50.864;12.766;2024-01-07T05:00:04;97535.69;;;-0.21;100.00
14242;BME280;7205;50.864;12.766;2024-01-07T05:02:31;97537.94;;;-0.16;100.00
14242;BME280;7205;50.864;12.766;2024-01-07T05:04:58;97547.38;;;-0.15;100.00
14242;BME280;7205;50.864;12.766;2024-01-07T05:07:25;97560.75;;;-0.09;100.00
14242;BME280;7205;50.864;12.766;2024-01-07T05:09:52;97539.03;;;-0.19;100.00
14242;BME280;7205;50.864;12.766;2024-01-07T05:12:21;97556.59;;;-0.11;100.00
14242;BME280;7205;50.864;12.766;2024-01-07T05:14:51;97560.66;;;-0.07;100.00
14242;BME280;7205;50.864;12.766;2024-01-07T05:17:19;97553.16;;;-0.12;100.00
14242;BME280;7205;50.864;12.766;2024-01-07T05:19:46;97563.25;;;-0.07;100.00
14242;BME280;7205;50.864;12.766;2024-01-07T05:22:12;97564.50;;;-0.13;100.00
14242;BME280;7205;50.864;12.766;2024-01-07T05:24:39;97566.03;;;-0.10;100.00
14242;BME280;7205;50.864;12.766;2024-01-07T05:27:06;97558.94;;;-0.19;100.00
14242;BME280;7205;50.864;12.766;2024-01-07T05:29:33;97579.22;;;-0.13;100.00
14242;BME280;7205;50.864;12.766;2024-01-07T05:32:05;97559.16;;;-0.22;100.00
14242;BME280;7205;50.864;12.766;2024-01-07T05:34:32;97592.19;;;-0.13;100.00
14242;BME280;7205;50.864;12.766;2024-01-07T05:36:59;97577.59;;;-0.14;100.00
14242;BME280;7205;50.864;12.766;2024-01-07T05:39:25;97570.34;;;-0.22;100.00
14242;BME280;7205;50.864;12.766;2024-01-07T05:41:52;97566.84;;;-0.21;100.00
14242;BME280;7205;50.864;12.766;2024-01-07T05:44:19;97579.22;;;-0.13;100.00
14242;BME280;7205;50.864;12.766;2024-01-07T05:46:46;97585.25;;;-0.13;100.00
14242;BME280;7205;50.864;12.766;2024-01-07T05:49:14;97575.53;;;-0.22;100.00
14242;BME280;7205;50.864;12.766;2024-01-07T05:51:41;97590.34;;;-0.11;100.00
14242;BME280;7205;50.864;12.766;2024-01-07T05:54:08;97592.09;;;-0.12;100.00
14242;BME280;7205;50.864;12.766;2024-01-07T05:56:38;97598.13;;;-0.11;100.00
14242;BME280;7205;50.864;12.766;2024-01-07T05:59:05;97585.72;;;-0.19;100.00
14242;BME280;7205;50.864;12.766;2024-01-07T06:01:32;97613.28;;;-0.18;100.00
14242;BME280;7205;50.864;12.766;2024-01-07T06:03:59;97589.56;;;-0.24;100.00
14242;BME280;7205;50.864;12.766;2024-01-07T06:06:27;97623.28;;;-0.24;100.00
14242;BME280;7205;50.864;12.766;2024-01-07T06:08:54;97596.69;;;-0.39;100.00
14242;BME280;7205;50.864;12.766;2024-01-07T06:11:21;97603.28;;;-0.35;100.00
14242;BME280;7205;50.864;12.766;2024-01-07T06:13:48;97611.34;;;-0.27;100.00
14242;BME280;7205;50.864;12.766;2024-01-07T06:16:15;97613.69;;;-0.11;100.00
14242;BME280;7205;50.864;12.766;2024-01-07T06:18:41;97606.63;;;-0.09;100.00
14242;BME280;7205;50.864;12.766;2024-01-07T06:21:08;97617.59;;;-0.06;100.00
14242;BME280;7205;50.864;12.766;2024-01-07T06:23:36;97618.41;;;-0.05;100.00
14242;BME280;7205;50.864;12.766;2024-01-07T06:26:03;97626.63;;;0.02;100.00
14242;BME280;7205;50.864;12.766;2024-01-07T06:28:31;97621.25;;;-0.08;100.00
14242;BME280;7205;50.864;12.766;2024-01-07T06:30:58;97628.72;;;-0.04;100.00
14242;BME280;7205;50.864;12.766;2024-01-07T06:33:25;97621.47;;;-0.11;100.00
14242;BME280;7205;50.864;12.766;2024-01-07T06:35:52;97623.44;;;-0.15;100.00
14242;BME280;7205;50.864;12.766;2024-01-07T06:38:18;97621.06;;;-0.18;100.00
14242;BME280;7205;50.864;12.766;2024-01-07T06:40:47;97624.81;;;-0.22;100.00
14242;BME280;7205;50.864;12.766;2024-01-07T06:43:13;97629.09;;;-0.21;100.00
14242;BME280;7205;50.864;12.766;2024-01-07T06:45:40;97631.69;;;-0.21;100.00
14242;BME280;7205;50.864;12.766;2024-01-07T06:48:07;97650.94;;;-0.12;100.00
14242;BME280;7205;50.864;12.766;2024-01-07T06:50:34;97643.09;;;-0.23;100.00
14242;BME280;7205;50.864;12.766;2024-01-07T06:53:01;97642.47;;;-0.27;100.00
14242;BME280;7205;50.864;12.766;2024-01-07T06:55:28;97658.66;;;-0.23;100.00
14242;BME280;7205;50.864;12.766;2024-01-07T06:57:56;97665.69;;;-0.25;100.00
14242;BME280;7205;50.864;12.766;2024-01-07T07:00:23;97665.69;;;-0.25;100.00
14242;BME280;7205;50.864;12.766;2024-01-07T07:02:50;97653.28;;;-0.33;100.00
14242;BME280;7205;50.864;12.766;2024-01-07T07:05:16;97660.84;;;-0.30;100.00
14242;BME280;7205;50.864;12.766;2024-01-07T07:07:43;97661.47;;;-0.26;100.00
14242;BME280;7205;50.864;12.766;2024-01-07T07:10:10;97660.44;;;-0.24;100.00
14242;BME280;7205;50.864;12.766;2024-01-07T07:12:37;97676.69;;;-0.22;100.00
14242;BME280;7205;50.864;12.766;2024-01-07T07:15:06;97674.50;;;-0.15;100.00
14242;BME280;7205;50.864;12.766;2024-01-07T07:17:35;97677.31;;;-0.18;100.00
14242;BME280;7205;50.864;12.766;2024-01-07T07:20:02;97670.88;;;-0.25;100.00
14242;BME280;7205;50.864;12.766;2024-01-07T07:22:29;97678.38;;;-0.21;100.00
14242;BME280;7205;50.864;12.766;2024-01-07T07:24:56;97673.19;;;-0.21;100.00
14242;BME280;7205;50.864;12.766;2024-01-07T07:27:22;97681.25;;;-0.13;100.00
14242;BME280;7205;50.864;12.766;2024-01-07T07:29:49;97688.31;;;-0.15;100.00
14242;BME280;7205;50.864;12.766;2024-01-07T07:32:17;97681.69;;;-0.19;100.00
14242;BME280;7205;50.864;12.766;2024-01-07T07:34:44;97691.44;;;-0.22;100.00
14242;BME280;7205;50.864;12.766;2024-01-07T07:37:12;97695.91;;;-0.24;100.00
14242;BME280;7205;50.864;12.766;2024-01-07T07:39:39;97713.50;;;-0.17;100.00
14242;BME280;7205;50.864;12.766;2024-01-07T07:42:06;97715.41;;;-0.19;100.00
14242;BME280;7205;50.864;12.766;2024-01-07T07:44:33;97707.81;;;-0.22;100.00
14242;BME280;7205;50.864;12.766;2024-01-07T07:47:00;97735.22;;;-0.18;100.00
14242;BME280;7205;50.864;12.766;2024-01-07T07:49:28;97711.69;;;-0.27;100.00
14242;BME280;7205;50.864;12.766;2024-01-07T07:51:56;97732.34;;;-0.26;100.00
14242;BME280;7205;50.864;12.766;2024-01-07T07:54:23;97737.13;;;-0.32;100.00
14242;BME280;7205;50.864;12.766;2024-01-07T07:56:49;97718.22;;;-0.47;100.00
14242;BME280;7205;50.864;12.766;2024-01-07T07:59:19;97718.78;;;-0.54;100.00
14242;BME280;7205;50.864;12.766;2024-01-07T08:01:46;97727.19;;;-0.51;100.00
14242;BME280;7205;50.864;12.766;2024-01-07T08:04:16;97729.03;;;-0.53;100.00
14242;BME280;7205;50.864;12.766;2024-01-07T08:06:44;97740.88;;;-0.49;100.00
14242;BME280;7205;50.864;12.766;2024-01-07T08:09:13;97740.44;;;-0.43;100.00
14242;BME280;7205;50.864;12.766;2024-01-07T08:11:40;97739.50;;;-0.42;100.00
14242;BME280;7205;50.864;12.766;2024-01-07T08:14:07;97746.88;;;-0.36;100.00
14242;BME280;7205;50.864;12.766;2024-01-07T08:16:34;97750.59;;;-0.27;100.00
14242;BME280;7205;50.864;12.766;2024-01-07T08:19:03;97741.34;;;-0.31;100.00
14242;BME280;7205;50.864;12.766;2024-01-07T08:21:33;97737.94;;;-0.32;100.00
14242;BME280;7205;50.864;12.766;2024-01-07T08:24:04;97753.38;;;-0.30;100.00
14242;BME280;7205;50.864;12.766;2024-01-07T08:26:31;97754.94;;;-0.28;100.00
14242;BME280;7205;50.864;12.766;2024-01-07T08:28:58;97751.63;;;-0.30;100.00
14242;BME280;7205;50.864;12.766;2024-01-07T08:31:25;97757.25;;;-0.36;100.00
14242;BME280;7205;50.864;12.766;2024-01-07T08:33:52;97761.06;;;-0.41;100.00
14242;BME280;7205;50.864;12.766;2024-01-07T08:36:18;97764.63;;;-0.42;100.00
14242;BME280;7205;50.864;12.766;2024-01-07T08:38:45;97772.41;;;-0.42;100.00
14242;BME280;7205;50.864;12.766;2024-01-07T08:41:15;97762.63;;;-0.51;100.00
14242;BME280;7205;50.864;12.766;2024-01-07T08:43:42;97775.28;;;-0.47;100.00
14242;BME280;7205;50.864;12.766;2024-01-07T08:46:09;97787.53;;;-0.49;100.00
14242;BME280;7205;50.864;12.766;2024-01-07T08:48:36;97778.50;;;-0.56;100.00
14242;BME280;7205;50.864;12.766;2024-01-07T08:51:04;97796.56;;;-0.54;100.00
14242;BME280;7205;50.864;12.766;2024-01-07T08:53:31;97785.16;;;-0.64;100.00
14242;BME280;7205;50.864;12.766;2024-01-07T08:55:58;97782.13;;;-0.71;100.00
14242;BME280;7205;50.864;12.766;2024-01-07T08:58:26;97791.44;;;-0.68;100.00
14242;BME280;7205;50.864;12.766;2024-01-07T09:00:53;97784.72;;;-0.71;100.00
14242;BME280;7205;50.864;12.766;2024-01-07T09:03:19;97786.28;;;-0.68;100.00
14242;BME280;7205;50.864;12.766;2024-01-07T09:05:46;97777.59;;;-0.67;100.00
14242;BME280;7205;50.864;12.766;2024-01-07T09:08:13;97788.16;;;-0.58;100.00
14242;BME280;7205;50.864;12.766;2024-01-07T09:10:43;97798.53;;;-0.58;100.00
14242;BME280;7205;50.864;12.766;2024-01-07T09:13:09;97804.84;;;-0.49;100.00
14242;BME280;7205;50.864;12.766;2024-01-07T09:15:38;97799.03;;;-0.53;100.00
14242;BME280;7205;50.864;12.766;2024-01-07T09:18:05;97803.38;;;-0.53;100.00
14242;BME280;7205;50.864;12.766;2024-01-07T09:20:32;97809.19;;;-0.50;100.00
14242;BME280;7205;50.864;12.766;2024-01-07T09:22:59;97800.38;;;-0.60;100.00
14242;BME280;7205;50.864;12.766;2024-01-07T09:25:27;97817.19;;;-0.53;100.00
14242;BME280;7205;50.864;12.766;2024-01-07T09:27:54;97801.22;;;-0.59;100.00
14242;BME280;7205;50.864;12.766;2024-01-07T09:30:21;97803.19;;;-0.63;100.00
14242;BME280;7205;50.864;12.766;2024-01-07T09:32:49;97802.56;;;-0.66;100.00
14242;BME280;7205;50.864;12.766;2024-01-07T09:35:17;97806.72;;;-0.64;100.00
14242;BME280;7205;50.864;12.766;2024-01-07T09:37:43;97805.25;;;-0.68;100.00
14242;BME280;7205;50.864;12.766;2024-01-07T09:40:12;97808.56;;;-0.66;100.00
14242;BME280;7205;50.864;12.766;2024-01-07T09:42:38;97825.38;;;-0.59;100.00
14242;BME280;7205;50.864;12.766;2024-01-07T09:45:06;97827.97;;;-0.59;100.00
14242;BME280;7205;50.864;12.766;2024-01-07T09:47:34;97813.03;;;-0.68;100.00
14242;BME280;7205;50.864;12.766;2024-01-07T09:50:03;97818.09;;;-0.66;100.00
14242;BME280;7205;50.864;12.766;2024-01-07T09:52:31;97830.56;;;-0.59;100.00
14242;BME280;7205;50.864;12.766;2024-01-07T09:55:03;97820.50;;;-0.63;100.00
14242;BME280;7205;50.864;12.766;2024-01-07T09:57:30;97838.44;;;-0.60;100.00
14242;BME280;7205;50.864;12.766;2024-01-07T09:59:57;97832.28;;;-0.72;100.00
14242;BME280;7205;50.864;12.766;2024-01-07T10:02:24;97820.69;;;-0.79;100.00
14242;BME280;7205;50.864;12.766;2024-01-07T10:04:50;97836.78;;;-0.74;100.00
14242;BME280;7205;50.864;12.766;2024-01-07T10:07:19;97822.25;;;-0.76;100.00
14242;BME280;7205;50.864;12.766;2024-01-07T10:09:45;97823.09;;;-0.76;100.00
14242;BME280;7205;50.864;12.766;2024-01-07T10:12:22;97832.50;;;-0.75;100.00
14242;BME280;7205;50.864;12.766;2024-01-07T10:14:49;97836.47;;;-0.69;99.48
14242;BME280;7205;50.864;12.766;2024-01-07T10:17:17;97825.94;;;-0.80;98.50
14242;BME280;7205;50.864;12.766;2024-01-07T10:19:45;97844.09;;;-0.80;97.56
14242;BME280;7205;50.864;12.766;2024-01-07T10:22:13;97820.88;;;-0.94;97.32
14242;BME280;7205;50.864;12.766;2024-01-07T10:24:42;97850.81;;;-0.90;97.70
14242;BME280;7205;50.864;12.766;2024-01-07T10:27:09;97850.72;;;-0.89;98.43
14242;BME280;7205;50.864;12.766;2024-01-07T10:29:37;97829.47;;;-0.94;98.17
14242;BME280;7205;50.864;12.766;2024-01-07T10:32:07;97842.44;;;-0.81;98.25
14242;BME280;7205;50.864;12.766;2024-01-07T10:34:35;97837.56;;;-0.86;97.29
14242;BME280;7205;50.864;12.766;2024-01-07T10:37:04;97839.53;;;-0.89;97.50
14242;BME280;7205;50.864;12.766;2024-01-07T10:39:31;97841.06;;;-0.87;97.40
14242;BME280;7205;50.864;12.766;2024-01-07T10:41:59;97852.19;;;-0.85;96.04
14242;BME280;7205;50.864;12.766;2024-01-07T10:44:27;97841.59;;;-0.94;95.39
14242;BME280;7205;50.864;12.766;2024-01-07T10:46:54;97864.28;;;-0.85;95.89
14242;BME280;7205;50.864;12.766;2024-01-07T10:49:23;97860.25;;;-0.89;94.24
14242;BME280;7205;50.864;12.766;2024-01-07T10:51:59;97857.22;;;-0.96;94.00
14242;BME280;7205;50.864;12.766;2024-01-07T10:54:29;97850.38;;;-0.97;93.10
14242;BME280;7205;50.864;12.766;2024-01-07T10:57:00;97860.09;;;-1.00;92.63
14242;BME280;7205;50.864;12.766;2024-01-07T10:59:32;97852.44;;;-1.02;91.63
14242;BME280;7205;50.864;12.766;2024-01-07T11:02:00;97856.59;;;-0.99;91.33
14242;BME280;7205;50.864;12.766;2024-01-07T11:04:34;97864.75;;;-1.05;90.41
14242;BME280;7205;50.864;12.766;2024-01-07T11:07:14;97838.63;;;-1.15;89.85
14242;BME280;7205;50.864;12.766;2024-01-07T11:09:53;97850.28;;;-1.22;88.74
14242;BME280;7205;50.864;12.766;2024-01-07T11:12:23;97852.72;;;-1.19;88.80
14242;BME280;7205;50.864;12.766;2024-01-07T11:14:49;97848.84;;;-1.26;89.30
14242;BME280;7205;50.864;12.766;2024-01-07T11:17:40;97857.63;;;-1.29;89.99
14242;BME280;7205;50.864;12.766;2024-01-07T11:20:17;97847.25;;;-1.29;90.67
14242;BME280;7205;50.864;12.766;2024-01-07T11:22:45;97855.47;;;-1.22;90.67
14242;BME280;7205;50.864;12.766;2024-01-07T11:25:28;97856.41;;;-1.23;89.72
14242;BME280;7205;50.864;12.766;2024-01-07T11:27:57;97856.31;;;-1.21;88.85
14242;BME280;7205;50.864;12.766;2024-01-07T11:30:24;97859.75;;;-1.21;88.85
14242;BME280;7205;50.864;12.766;2024-01-07T11:32:58;97868.97;;;-1.17;88.66
14242;BME280;7205;50.864;12.766;2024-01-07T11:38:28;97872.72;;;-1.08;89.39
14242;BME280;7205;50.864;12.766;2024-01-07T11:40:56;97869.03;;;-1.04;89.97
14242;BME280;7205;50.864;12.766;2024-01-07T11:43:25;97870.47;;;-1.00;89.97
14242;BME280;7205;50.864;12.766;2024-01-07T11:45:52;97864.13;;;-1.09;88.96
14242;BME280;7205;50.864;12.766;2024-01-07T11:48:20;97864.22;;;-1.10;89.11
14242;BME280;7205;50.864;12.766;2024-01-07T11:50:46;97865.34;;;-1.14;88.21
14242;BME280;7205;50.864;12.766;2024-01-07T11:53:13;97863.59;;;-1.14;88.03
14242;BME280;7205;50.864;12.766;2024-01-07T11:55:40;97872.28;;;-1.15;88.00
14242;BME280;7205;50.864;12.766;2024-01-07T11:58:07;97873.13;;;-1.14;87.59
14242;BME280;7205;50.864;12.766;2024-01-07T12:00:35;97880.38;;;-1.07;87.67
14242;BME280;7205;50.864;12.766;2024-01-07T12:03:03;97866.09;;;-1.12;87.22
14242;BME280;7205;50.864;12.766;2024-01-07T12:05:30;97883.53;;;-1.02;87.42
14242;BME280;7205;50.864;12.766;2024-01-07T12:07:59;97893.25;;;-1.05;87.20
14242;BME280;7205;50.864;12.766;2024-01-07T12:10:26;97881.81;;;-1.15;86.65
14242;BME280;7205;50.864;12.766;2024-01-07T12:12:54;97886.97;;;-1.15;87.63
14242;BME280;7205;50.864;12.766;2024-01-07T12:15:22;97880.78;;;-1.13;87.90
14242;BME280;7205;50.864;12.766;2024-01-07T12:17:57;97909.44;;;-1.02;88.70
14242;BME280;7205;50.864;12.766;2024-01-07T12:20:27;97904.78;;;-0.97;87.75
14242;BME280;7205;50.864;12.766;2024-01-07T12:23:05;97893.88;;;-1.02;87.06
14242;BME280;7205;50.864;12.766;2024-01-07T12:25:36;97905.53;;;-0.95;87.11
14242;BME280;7205;50.864;12.766;2024-01-07T12:28:26;97906.72;;;-1.00;85.44
14242;BME280;7205;50.864;12.766;2024-01-07T12:30:54;97911.91;;;-1.00;83.63
14242;BME280;7205;50.864;12.766;2024-01-07T12:33:22;97909.31;;;-1.00;82.97
14242;BME280;7205;50.864;12.766;2024-01-07T12:36:06;97912.84;;;-1.01;82.88
14242;BME280;7205;50.864;12.766;2024-01-07T12:38:36;97904.34;;;-1.03;81.70
14242;BME280;7205;50.864;12.766;2024-01-07T12:41:03;97912.97;;;-1.03;80.74
14242;BME280;7205;50.864;12.766;2024-01-07T12:43:30;97927.09;;;-0.94;80.27
14242;BME280;7205;50.864;12.766;2024-01-07T12:45:57;97932.16;;;-0.93;79.92
14242;BME280;7205;50.864;12.766;2024-01-07T12:48:32;97934.88;;;-0.94;78.35
14242;BME280;7205;50.864;12.766;2024-01-07T12:51:00;97929.59;;;-1.07;77.14
14242;BME280;7205;50.864;12.766;2024-01-07T12:53:27;97923.53;;;-1.06;77.11
14242;BME280;7205;50.864;12.766;2024-01-07T12:55:54;97927.84;;;-1.06;76.63
14242;BME280;7205;50.864;12.766;2024-01-07T12:58:21;97936.28;;;-1.03;76.17
14242;BME280;7205;50.864;12.766;2024-01-07T13:00:51;97929.50;;;-1.05;76.64
14242;BME280;7205;50.864;12.766;2024-01-07T13:03:18;97929.44;;;-1.04;76.60